createdAt,value
2022-10-26T00:00:30.373Z,1009.60
2022-10-26T00:01:30.461Z,1009.61
2022-10-26T00:02:30.446Z,1009.64
2022-10-26T00:03:30.334Z,1009.63
2022-10-26T00:04:30.330Z,1009.63
2022-10-26T00:05:30.314Z,1009.59
2022-10-26T00:06:30.312Z,1009.62
2022-10-26T00:07:30.424Z,1009.60
2022-10-26T00:08:30.296Z,1009.65
2022-10-26T00:09:30.273Z,1009.59
2022-10-26T00:10:31.731Z,1009.56
2022-10-26T00:11:30.244Z,1009.61
2022-10-26T00:12:30.264Z,1009.58
2022-10-26T00:13:30.225Z,1009.50
2022-10-26T00:14:30.223Z,1009.54
2022-10-26T00:15:30.213Z,1009.55
2022-10-26T00:16:30.202Z,1009.54
2022-10-26T00:17:30.212Z,1009.54
2022-10-26T00:18:30.184Z,1009.52
2022-10-26T00:19:30.163Z,1009.53
2022-10-26T00:20:30.154Z,1009.54
2022-10-26T00:21:30.144Z,1009.56
2022-10-26T00:22:30.155Z,1009.54
2022-10-26T00:23:30.124Z,1009.55
2022-10-26T00:24:30.134Z,1009.57
2022-10-26T00:25:30.112Z,1009.54
2022-10-26T00:26:30.101Z,1009.54
2022-10-26T00:27:30.075Z,1009.53
2022-10-26T00:28:30.086Z,1009.59
2022-10-26T00:29:30.099Z,1009.58
2022-10-26T00:30:30.047Z,1009.54
2022-10-26T00:31:30.034Z,1009.61
2022-10-26T00:32:30.124Z,1009.56
2022-10-26T00:33:30.016Z,1009.55
2022-10-26T00:34:30.035Z,1009.53
2022-10-26T00:35:45.179Z,1009.54
2022-10-26T00:36:30.985Z,1009.51
2022-10-26T00:37:29.975Z,1009.52
2022-10-26T00:38:29.975Z,1009.58
2022-10-26T00:39:29.976Z,1009.52
2022-10-26T00:40:29.954Z,1009.48
2022-10-26T00:41:29.934Z,1009.52
2022-10-26T00:42:29.932Z,1009.51
2022-10-26T00:43:29.923Z,1009.48
2022-10-26T00:44:34.552Z,1009.48
2022-10-26T00:45:30.887Z,1009.45
2022-10-26T00:46:29.885Z,1009.44
2022-10-26T00:47:29.865Z,1009.41
2022-10-26T00:48:29.867Z,1009.43
2022-10-26T00:49:29.868Z,1009.42
2022-10-26T00:50:29.838Z,1009.35
2022-10-26T00:51:29.834Z,1009.40
2022-10-26T00:52:29.815Z,1009.41
2022-10-26T00:53:29.813Z,1009.39
2022-10-26T00:54:29.818Z,1009.39
2022-10-26T00:55:29.787Z,1009.40
2022-10-26T00:56:29.787Z,1009.43
2022-10-26T00:57:29.790Z,1009.44
2022-10-26T00:58:29.754Z,1009.43
2022-10-26T00:59:29.757Z,1009.38
2022-10-26T01:00:29.727Z,1009.41
2022-10-26T01:01:29.789Z,1009.42
2022-10-26T01:02:29.717Z,1009.37
2022-10-26T01:03:29.794Z,1009.42
2022-10-26T01:04:29.705Z,1009.40
2022-10-26T01:05:29.696Z,1009.35
2022-10-26T01:06:29.690Z,1009.38
2022-10-26T01:07:29.739Z,1009.33
2022-10-26T01:08:29.678Z,1009.29
2022-10-26T01:09:29.645Z,1009.29
2022-10-26T01:10:29.658Z,1009.30
2022-10-26T01:11:29.616Z,1009.30
2022-10-26T01:12:29.598Z,1009.31
2022-10-26T01:13:29.684Z,1009.28
2022-10-26T01:14:29.578Z,1009.32
2022-10-26T01:15:29.567Z,1009.33
2022-10-26T01:16:29.577Z,1009.29
2022-10-26T01:17:29.548Z,1009.32
2022-10-26T01:18:29.538Z,1009.25
2022-10-26T01:19:29.526Z,1009.27
2022-10-26T01:20:29.558Z,1009.25
2022-10-26T01:21:29.498Z,1009.26
2022-10-26T01:22:29.495Z,1009.23
2022-10-26T01:23:29.487Z,1009.24
2022-10-26T01:24:29.469Z,1009.19
2022-10-26T01:25:29.457Z,1009.22
2022-10-26T01:26:29.477Z,1009.19
2022-10-26T01:27:29.438Z,1009.20
2022-10-26T01:28:29.427Z,1009.21
2022-10-26T01:29:29.417Z,1009.19
2022-10-26T01:30:29.409Z,1009.16
2022-10-26T01:31:29.404Z,1009.17
2022-10-26T01:32:29.419Z,1009.22
2022-10-26T01:33:29.378Z,1009.16
2022-10-26T01:34:29.368Z,1009.15
2022-10-26T01:35:29.359Z,1009.10
2022-10-26T01:36:29.415Z,1009.09
2022-10-26T01:37:29.350Z,1009.08
2022-10-26T01:38:29.318Z,1009.09
2022-10-26T01:39:29.308Z,1009.08
2022-10-26T01:40:29.300Z,1008.99
2022-10-26T01:41:29.300Z,1009.03
2022-10-26T01:42:29.299Z,1009.03
2022-10-26T01:43:29.270Z,1009.02
2022-10-26T01:44:29.258Z,1008.99
2022-10-26T01:45:29.241Z,1008.97
2022-10-26T01:46:29.230Z,1008.95
2022-10-26T01:47:29.241Z,1008.95
2022-10-26T01:48:29.216Z,1008.92
2022-10-26T01:49:29.198Z,1008.99
2022-10-26T01:50:29.190Z,1008.92
2022-10-26T01:51:29.199Z,1008.90
2022-10-26T01:52:29.189Z,1008.92
2022-10-26T01:53:29.161Z,1008.88
2022-10-26T01:54:29.160Z,1008.91
2022-10-26T01:55:29.131Z,1008.85
2022-10-26T01:56:29.121Z,1008.86
2022-10-26T01:57:29.129Z,1008.91
2022-10-26T01:58:29.100Z,1008.91
2022-10-26T01:59:29.081Z,1008.86
2022-10-26T02:00:29.080Z,1008.85
2022-10-26T02:01:29.097Z,1008.85
2022-10-26T02:02:29.059Z,1008.88
2022-10-26T02:03:29.134Z,1008.86
2022-10-26T02:04:29.046Z,1008.82
2022-10-26T02:05:29.021Z,1008.81
2022-10-26T02:06:29.011Z,1008.83
2022-10-26T02:07:29.012Z,1008.79
2022-10-26T02:08:29.013Z,1008.76
2022-10-26T02:09:28.973Z,1008.79
2022-10-26T02:10:28.990Z,1008.67
2022-10-26T02:11:28.951Z,1008.74
2022-10-26T02:12:28.940Z,1008.73
2022-10-26T02:13:28.953Z,1008.72
2022-10-26T02:14:28.929Z,1008.71
2022-10-26T02:15:28.914Z,1008.70
2022-10-26T02:16:28.900Z,1008.62
2022-10-26T02:17:28.891Z,1008.67
2022-10-26T02:18:28.893Z,1008.65
2022-10-26T02:19:28.864Z,1008.65
2022-10-26T02:20:28.854Z,1008.68
2022-10-26T02:21:28.850Z,1008.59
2022-10-26T02:22:28.831Z,1008.62
2022-10-26T02:23:28.852Z,1008.58
2022-10-26T02:24:28.813Z,1008.65
2022-10-26T02:25:28.802Z,1008.53
2022-10-26T02:26:28.805Z,1008.60
2022-10-26T02:27:28.774Z,1008.59
2022-10-26T02:28:28.763Z,1008.59
2022-10-26T02:29:28.774Z,1008.55
2022-10-26T02:30:28.744Z,1008.56
2022-10-26T02:31:28.732Z,1008.53
2022-10-26T02:32:28.720Z,1008.55
2022-10-26T02:33:28.718Z,1008.55
2022-10-26T02:34:28.693Z,1008.50
2022-10-26T02:35:28.710Z,1008.54
2022-10-26T02:36:28.674Z,1008.55
2022-10-26T02:37:28.666Z,1008.56
2022-10-26T02:38:28.653Z,1008.57
2022-10-26T02:39:28.643Z,1008.54
2022-10-26T02:40:28.652Z,1008.55
2022-10-26T02:41:28.647Z,1008.55
2022-10-26T02:42:28.603Z,1008.56
2022-10-26T02:43:28.676Z,1008.54
2022-10-26T02:44:28.584Z,1008.55
2022-10-26T02:45:28.575Z,1008.51
2022-10-26T02:46:28.555Z,1008.52
2022-10-26T02:47:28.574Z,1008.50
2022-10-26T02:48:28.544Z,1008.46
2022-10-26T02:49:28.534Z,1008.52
2022-10-26T02:50:28.515Z,1008.50
2022-10-26T02:51:28.526Z,1008.47
2022-10-26T02:52:28.495Z,1008.47
2022-10-26T02:53:28.491Z,1008.44
2022-10-26T02:54:28.474Z,1008.47
2022-10-26T02:55:28.456Z,1008.42
2022-10-26T02:56:28.447Z,1008.44
2022-10-26T02:57:28.467Z,1008.43
2022-10-26T02:58:28.428Z,1008.38
2022-10-26T02:59:28.425Z,1008.42
2022-10-26T03:00:28.397Z,1008.40
2022-10-26T03:01:28.441Z,1008.38
2022-10-26T03:02:28.405Z,1008.39
2022-10-26T03:03:28.377Z,1008.36
2022-10-26T03:04:28.420Z,1008.39
2022-10-26T03:05:28.355Z,1008.37
2022-10-26T03:06:28.338Z,1008.33
2022-10-26T03:07:28.326Z,1008.33
2022-10-26T03:09:28.307Z,1008.39
2022-10-26T03:10:28.295Z,1008.32
2022-10-26T03:11:28.285Z,1008.34
2022-10-26T03:12:28.269Z,1008.33
2022-10-26T03:13:28.268Z,1008.35
2022-10-26T03:14:28.269Z,1008.37
2022-10-26T03:15:28.238Z,1008.35
2022-10-26T03:16:28.228Z,1008.34
2022-10-26T03:17:28.217Z,1008.36
2022-10-26T03:18:28.228Z,1008.36
2022-10-26T03:19:28.198Z,1008.35
2022-10-26T03:20:28.187Z,1008.37
2022-10-26T03:21:28.175Z,1008.38
2022-10-26T03:22:28.187Z,1008.34
2022-10-26T03:23:28.159Z,1008.38
2022-10-26T03:24:28.139Z,1008.38
2022-10-26T03:25:28.135Z,1008.33
2022-10-26T03:26:28.116Z,1008.33
2022-10-26T03:27:28.107Z,1008.32
2022-10-26T03:28:28.109Z,1008.28
2022-10-26T03:29:28.088Z,1008.29
2022-10-26T03:30:28.069Z,1008.23
2022-10-26T03:31:28.085Z,1008.31
2022-10-26T03:32:28.047Z,1008.28
2022-10-26T03:33:28.141Z,1008.32
2022-10-26T03:34:28.026Z,1008.31
2022-10-26T03:35:28.039Z,1008.30
2022-10-26T03:36:28.001Z,1008.29
2022-10-26T03:37:27.996Z,1008.28
2022-10-26T03:38:28.006Z,1008.29
2022-10-26T03:39:27.968Z,1008.29
2022-10-26T03:40:27.959Z,1008.27
2022-10-26T03:41:27.971Z,1008.31
2022-10-26T03:42:27.935Z,1008.27
2022-10-26T03:43:27.952Z,1008.26
2022-10-26T03:44:27.912Z,1008.22
2022-10-26T03:45:27.899Z,1008.20
2022-10-26T03:46:27.897Z,1008.20
2022-10-26T03:47:27.879Z,1008.17
2022-10-26T03:48:27.889Z,1008.18
2022-10-26T03:49:27.860Z,1008.17
2022-10-26T03:50:27.840Z,1008.19
2022-10-26T03:51:27.859Z,1008.20
2022-10-26T03:52:27.820Z,1008.22
2022-10-26T03:53:27.842Z,1008.24
2022-10-26T03:54:27.803Z,1008.22
2022-10-26T03:55:27.789Z,1008.20
2022-10-26T03:56:27.799Z,1008.23
2022-10-26T03:57:27.763Z,1008.27
2022-10-26T03:58:27.762Z,1008.24
2022-10-26T03:59:27.742Z,1008.25
2022-10-26T04:00:27.738Z,1008.22
2022-10-26T04:01:27.814Z,1008.19
2022-10-26T04:02:27.703Z,1008.25
2022-10-26T04:03:27.732Z,1008.23
2022-10-26T04:04:27.789Z,1008.25
2022-10-26T04:05:27.682Z,1008.25
2022-10-26T04:06:27.666Z,1008.25
2022-10-26T04:07:27.681Z,1008.24
2022-10-26T04:08:27.642Z,1008.24
2022-10-26T04:09:27.640Z,1008.23
2022-10-26T04:10:27.622Z,1008.27
2022-10-26T04:11:27.611Z,1008.24
2022-10-26T04:12:27.593Z,1008.25
2022-10-26T04:13:27.653Z,1008.24
2022-10-26T04:14:27.576Z,1008.26
2022-10-26T04:15:27.567Z,1008.16
2022-10-26T04:16:31.050Z,1008.20
2022-10-26T04:17:28.550Z,1008.22
2022-10-26T04:18:27.532Z,1008.21
2022-10-26T04:19:27.544Z,1008.16
2022-10-26T04:20:27.534Z,1008.17
2022-10-26T04:21:27.508Z,1008.14
2022-10-26T04:22:27.705Z,1008.17
2022-10-26T04:23:27.551Z,1008.17
2022-10-26T04:24:27.583Z,1008.18
2022-10-26T04:25:30.147Z,1008.12
2022-10-26T04:26:28.569Z,1008.14
2022-10-26T04:27:27.432Z,1008.16
2022-10-26T04:28:27.474Z,1008.15
2022-10-26T04:29:27.493Z,1008.18
2022-10-26T04:30:27.424Z,1008.14
2022-10-26T04:31:27.385Z,1008.16
2022-10-26T04:32:27.374Z,1008.11
2022-10-26T04:33:27.374Z,1008.10
2022-10-26T04:34:27.347Z,1008.12
2022-10-26T04:35:27.365Z,1008.14
2022-10-26T04:36:27.324Z,1008.12
2022-10-26T04:37:27.320Z,1008.11
2022-10-26T04:38:27.309Z,1008.13
2022-10-26T04:39:27.295Z,1008.12
2022-10-26T04:40:27.285Z,1008.10
2022-10-26T04:41:27.295Z,1008.09
2022-10-26T04:42:27.256Z,1008.13
2022-10-26T04:43:27.256Z,1008.14
2022-10-26T04:44:27.235Z,1008.11
2022-10-26T04:45:27.225Z,1008.14
2022-10-26T04:46:27.235Z,1008.10
2022-10-26T04:47:27.206Z,1008.09
2022-10-26T04:48:27.197Z,1008.09
2022-10-26T04:49:27.177Z,1008.11
2022-10-26T04:50:28.416Z,1008.08
2022-10-26T04:51:27.206Z,1008.12
2022-10-26T04:52:27.164Z,1008.13
2022-10-26T04:53:27.147Z,1008.08
2022-10-26T04:54:27.124Z,1008.12
2022-10-26T04:55:27.113Z,1008.17
2022-10-26T04:56:27.136Z,1008.16
2022-10-26T04:57:27.098Z,1008.13
2022-10-26T04:58:27.077Z,1008.12
2022-10-26T04:59:27.071Z,1008.09
2022-10-26T05:00:27.058Z,1008.12
2022-10-26T05:01:27.161Z,1008.13
2022-10-26T05:02:27.130Z,1008.10
2022-10-26T05:03:27.035Z,1008.11
2022-10-26T05:04:27.010Z,1008.12
2022-10-26T05:05:27.031Z,1008.13
2022-10-26T05:06:27.061Z,1008.15
2022-10-26T05:07:27.229Z,1008.13
2022-10-26T05:08:27.038Z,1008.16
2022-10-26T05:09:27.028Z,1008.11
2022-10-26T05:10:26.940Z,1008.13
2022-10-26T05:11:27.011Z,1008.14
2022-10-26T05:12:27.047Z,1008.17
2022-10-26T05:14:26.906Z,1008.14
2022-10-26T05:15:26.890Z,1008.15
2022-10-26T05:16:26.876Z,1008.16
2022-10-26T05:17:26.889Z,1008.16
2022-10-26T05:18:26.929Z,1008.13
2022-10-26T05:19:26.849Z,1008.19
2022-10-26T05:20:26.829Z,1008.21
2022-10-26T05:21:26.819Z,1008.12
2022-10-26T05:22:26.831Z,1008.13
2022-10-26T05:23:26.809Z,1008.15
2022-10-26T05:24:26.779Z,1008.18
2022-10-26T05:25:26.821Z,1008.17
2022-10-26T05:26:26.824Z,1008.13
2022-10-26T05:27:26.749Z,1008.17
2022-10-26T05:28:26.852Z,1008.16
2022-10-26T05:29:26.780Z,1008.17
2022-10-26T05:30:26.727Z,1008.16
2022-10-26T05:31:26.708Z,1008.20
2022-10-26T05:32:26.769Z,1008.16
2022-10-26T05:33:26.775Z,1008.15
2022-10-26T05:34:26.671Z,1008.16
2022-10-26T05:35:26.736Z,1008.15
2022-10-26T05:36:26.652Z,1008.17
2022-10-26T05:37:26.640Z,1008.16
2022-10-26T05:39:26.640Z,1008.17
2022-10-26T05:40:26.601Z,1008.23
2022-10-26T05:41:26.594Z,1008.21
2022-10-26T05:42:26.582Z,1008.18
2022-10-26T05:43:26.591Z,1008.13
2022-10-26T05:44:26.582Z,1008.23
2022-10-26T05:45:26.560Z,1008.22
2022-10-26T05:46:26.612Z,1008.26
2022-10-26T05:47:26.530Z,1008.27
2022-10-26T05:48:26.521Z,1008.26
2022-10-26T05:49:26.540Z,1008.32
2022-10-26T05:50:26.492Z,1008.30
2022-10-26T05:51:26.496Z,1008.28
2022-10-26T05:52:26.471Z,1008.25
2022-10-26T05:53:26.473Z,1008.35
2022-10-26T05:54:26.476Z,1008.30
2022-10-26T05:55:26.458Z,1008.35
2022-10-26T05:56:26.424Z,1008.38
2022-10-26T05:57:26.413Z,1008.34
2022-10-26T05:58:26.423Z,1008.32
2022-10-26T05:59:26.392Z,1008.38
2022-10-26T06:00:26.410Z,1008.39
2022-10-26T06:01:26.475Z,1008.38
2022-10-26T06:02:26.476Z,1008.37
2022-10-26T06:03:26.448Z,1008.41
2022-10-26T06:04:26.333Z,1008.40
2022-10-26T06:05:26.327Z,1008.47
2022-10-26T06:06:26.337Z,1008.44
2022-10-26T06:07:26.315Z,1008.41
2022-10-26T06:08:26.293Z,1008.37
2022-10-26T06:09:26.283Z,1008.38
2022-10-26T06:10:26.265Z,1008.39
2022-10-26T06:11:26.303Z,1008.39
2022-10-26T06:12:26.291Z,1008.37
2022-10-26T06:13:26.246Z,1008.42
2022-10-26T06:14:26.225Z,1008.40
2022-10-26T06:15:26.221Z,1008.42
2022-10-26T06:16:26.233Z,1008.41
2022-10-26T06:17:26.196Z,1008.43
2022-10-26T06:18:26.175Z,1008.37
2022-10-26T06:19:26.172Z,1008.40
2022-10-26T06:20:26.155Z,1008.40
2022-10-26T06:21:26.172Z,1008.38
2022-10-26T06:22:26.132Z,1008.37
2022-10-26T06:23:26.134Z,1008.38
2022-10-26T06:24:26.106Z,1008.41
2022-10-26T06:25:26.107Z,1008.40
2022-10-26T06:26:26.115Z,1008.41
2022-10-26T06:27:26.077Z,1008.43
2022-10-26T06:28:26.176Z,1008.39
2022-10-26T06:29:26.058Z,1008.45
2022-10-26T06:30:26.046Z,1008.46
2022-10-26T06:31:26.125Z,1008.45
2022-10-26T06:32:26.122Z,1008.41
2022-10-26T06:33:30.103Z,1008.43
2022-10-26T06:34:25.996Z,1008.40
2022-10-26T06:35:25.985Z,1008.42
2022-10-26T06:36:25.988Z,1008.42
2022-10-26T06:37:25.986Z,1008.39
2022-10-26T06:38:25.958Z,1008.38
2022-10-26T06:39:26.005Z,1008.39
2022-10-26T06:40:25.956Z,1008.37
2022-10-26T06:41:25.926Z,1008.35
2022-10-26T06:42:25.929Z,1008.36
2022-10-26T06:43:25.912Z,1008.34
2022-10-26T06:44:25.893Z,1008.45
2022-10-26T06:45:25.897Z,1008.40
2022-10-26T06:46:25.869Z,1008.38
2022-10-26T06:47:25.846Z,1008.39
2022-10-26T06:48:25.884Z,1008.39
2022-10-26T06:49:25.829Z,1008.40
2022-10-26T06:50:25.883Z,1008.37
2022-10-26T06:51:26.009Z,1008.39
2022-10-26T06:52:25.819Z,1008.38
2022-10-26T06:53:25.876Z,1008.34
2022-10-26T06:54:25.796Z,1008.38
2022-10-26T06:55:25.788Z,1008.37
2022-10-26T06:56:25.819Z,1008.34
2022-10-26T06:57:25.743Z,1008.42
2022-10-26T06:58:25.730Z,1008.38
2022-10-26T06:59:25.738Z,1008.40
2022-10-26T07:00:25.842Z,1008.38
2022-10-26T07:01:25.794Z,1008.37
2022-10-26T07:02:25.909Z,1008.42
2022-10-26T07:03:25.688Z,1008.43
2022-10-26T07:04:25.688Z,1008.41
2022-10-26T07:05:25.671Z,1008.45
2022-10-26T07:06:25.646Z,1008.45
2022-10-26T07:07:25.628Z,1008.50
2022-10-26T07:08:25.620Z,1008.51
2022-10-26T07:09:29.609Z,1008.52
2022-10-26T07:10:25.684Z,1008.54
2022-10-26T07:11:25.583Z,1008.51
2022-10-26T07:12:29.585Z,1008.56
2022-10-26T07:13:26.656Z,1008.56
2022-10-26T07:14:25.580Z,1008.56
2022-10-26T07:15:25.616Z,1008.55
2022-10-26T07:16:25.545Z,1008.55
2022-10-26T07:17:25.520Z,1008.59
2022-10-26T07:18:25.509Z,1008.58
2022-10-26T07:19:25.522Z,1008.58
2022-10-26T07:20:25.616Z,1008.59
2022-10-26T07:21:25.494Z,1008.52
2022-10-26T07:22:25.534Z,1008.58
2022-10-26T07:23:25.583Z,1008.58
2022-10-26T07:24:25.508Z,1008.54
2022-10-26T07:25:25.453Z,1008.52
2022-10-26T07:26:25.441Z,1008.50
2022-10-26T07:27:25.412Z,1008.53
2022-10-26T07:28:25.402Z,1008.53
2022-10-26T07:29:25.396Z,1008.55
2022-10-26T07:30:25.381Z,1008.52
2022-10-26T07:31:25.383Z,1008.56
2022-10-26T07:32:25.402Z,1008.55
2022-10-26T07:33:25.404Z,1008.55
2022-10-26T07:34:25.334Z,1008.57
2022-10-26T07:35:25.341Z,1008.55
2022-10-26T07:36:25.315Z,1008.60
2022-10-26T07:37:25.296Z,1008.55
2022-10-26T07:38:25.292Z,1008.53
2022-10-26T07:39:25.273Z,1008.50
2022-10-26T07:40:25.293Z,1008.48
2022-10-26T07:41:25.257Z,1008.50
2022-10-26T07:42:25.250Z,1008.50
2022-10-26T07:43:25.267Z,1008.55
2022-10-26T07:44:25.235Z,1008.57
2022-10-26T07:45:25.242Z,1008.57
2022-10-26T07:46:25.205Z,1008.56
2022-10-26T07:47:25.193Z,1008.54
2022-10-26T07:48:25.183Z,1008.59
2022-10-26T07:49:27.611Z,1008.54
2022-10-26T07:50:25.165Z,1008.56
2022-10-26T07:51:25.176Z,1008.55
2022-10-26T07:52:25.137Z,1008.55
2022-10-26T07:53:27.838Z,1008.59
2022-10-26T07:54:25.124Z,1008.62
2022-10-26T07:55:25.126Z,1008.61
2022-10-26T07:56:25.096Z,1008.59
2022-10-26T07:57:25.089Z,1008.62
2022-10-26T07:58:25.075Z,1008.59
2022-10-26T07:59:25.116Z,1008.58
2022-10-26T08:00:25.141Z,1008.62
2022-10-26T08:01:25.256Z,1008.55
2022-10-26T08:02:25.036Z,1008.58
2022-10-26T08:03:25.017Z,1008.65
2022-10-26T08:04:25.017Z,1008.63
2022-10-26T08:05:25.064Z,1008.64
2022-10-26T08:06:25.053Z,1008.66
2022-10-26T08:07:24.996Z,1008.59
2022-10-26T08:08:24.971Z,1008.61
2022-10-26T08:09:24.947Z,1008.60
2022-10-26T08:10:24.966Z,1008.62
2022-10-26T08:11:24.930Z,1008.57
2022-10-26T08:12:24.948Z,1008.60
2022-10-26T08:13:24.916Z,1008.61
2022-10-26T08:14:24.898Z,1008.54
2022-10-26T08:15:24.973Z,1008.50
2022-10-26T08:16:24.958Z,1008.53
2022-10-26T08:17:24.929Z,1008.50
2022-10-26T08:18:24.890Z,1008.52
2022-10-26T08:19:24.846Z,1008.53
2022-10-26T08:20:24.911Z,1008.55
2022-10-26T08:21:36.266Z,1008.56
2022-10-26T08:22:25.877Z,1008.52
2022-10-26T08:23:24.807Z,1008.49
2022-10-26T08:24:24.788Z,1008.50
2022-10-26T08:25:24.780Z,1008.52
2022-10-26T08:26:24.859Z,1008.49
2022-10-26T08:27:24.779Z,1008.48
2022-10-26T08:28:24.748Z,1008.43
2022-10-26T08:29:24.732Z,1008.40
2022-10-26T08:30:24.760Z,1008.44
2022-10-26T08:31:24.730Z,1008.41
2022-10-26T08:32:24.720Z,1008.40
2022-10-26T08:33:24.710Z,1008.39
2022-10-26T08:34:24.682Z,1008.41
2022-10-26T08:35:24.672Z,1008.42
2022-10-26T08:36:24.679Z,1008.44
2022-10-26T08:37:24.645Z,1008.43
2022-10-26T08:38:24.639Z,1008.44
2022-10-26T08:39:24.623Z,1008.44
2022-10-26T08:40:24.623Z,1008.44
2022-10-26T08:41:24.642Z,1008.39
2022-10-26T08:42:24.591Z,1008.39
2022-10-26T08:43:24.592Z,1008.34
2022-10-26T08:44:24.575Z,1008.34
2022-10-26T08:45:30.635Z,1008.37
2022-10-26T08:46:25.720Z,1008.30
2022-10-26T08:47:24.558Z,1008.36
2022-10-26T08:48:24.534Z,1008.32
2022-10-26T08:49:24.525Z,1008.34
2022-10-26T08:50:24.503Z,1008.38
2022-10-26T08:51:24.495Z,1008.35
2022-10-26T08:52:24.503Z,1008.33
2022-10-26T08:53:24.483Z,1008.36
2022-10-26T08:54:24.461Z,1008.39
2022-10-26T08:55:24.445Z,1008.35
2022-10-26T08:56:24.445Z,1008.35
2022-10-26T08:57:24.454Z,1008.34
2022-10-26T08:58:24.415Z,1008.34
2022-10-26T08:59:24.406Z,1008.32
2022-10-26T09:00:24.403Z,1008.28
2022-10-26T09:01:24.505Z,1008.31
2022-10-26T09:02:24.395Z,1008.24
2022-10-26T09:03:24.364Z,1008.23
2022-10-26T09:04:24.357Z,1008.18
2022-10-26T09:05:24.335Z,1008.20
2022-10-26T09:06:10.944Z,1008.18
2022-10-26T09:07:10.944Z,1008.14
2022-10-26T09:08:10.926Z,1008.18
2022-10-26T09:09:10.905Z,1008.19
2022-10-26T09:10:10.894Z,1008.15
2022-10-26T09:11:10.925Z,1008.13
2022-10-26T09:12:10.877Z,1008.16
2022-10-26T09:13:10.877Z,1008.12
2022-10-26T09:14:10.846Z,1008.13
2022-10-26T09:15:10.846Z,1008.14
2022-10-26T09:16:10.827Z,1008.15
2022-10-26T09:17:10.817Z,1008.21
2022-10-26T09:18:10.827Z,1008.24
2022-10-26T09:19:10.794Z,1008.26
2022-10-26T09:20:10.789Z,1008.24
2022-10-26T09:21:10.776Z,1008.29
2022-10-26T09:22:10.867Z,1008.25
2022-10-26T09:23:10.776Z,1008.30
2022-10-26T09:24:10.802Z,1008.34
2022-10-26T09:25:10.731Z,1008.43
2022-10-26T09:26:10.729Z,1008.45
2022-10-26T09:27:10.709Z,1008.49
2022-10-26T09:28:10.799Z,1008.59
2022-10-26T09:29:10.713Z,1008.59
2022-10-26T09:30:10.678Z,1008.59
2022-10-26T09:31:10.660Z,1008.61
2022-10-26T09:32:10.696Z,1008.65
2022-10-26T09:33:10.639Z,1008.65
2022-10-26T09:34:10.664Z,1008.61
2022-10-26T09:35:10.621Z,1008.67
2022-10-26T09:36:13.275Z,1008.64
2022-10-26T09:37:11.601Z,1008.65
2022-10-26T09:38:10.591Z,1008.66
2022-10-26T09:39:10.790Z,1008.67
2022-10-26T09:40:10.571Z,1008.64
2022-10-26T09:41:10.552Z,1008.63
2022-10-26T09:42:10.549Z,1008.65
2022-10-26T09:43:10.532Z,1008.62
2022-10-26T09:44:10.543Z,1008.65
2022-10-26T09:45:10.532Z,1008.68
2022-10-26T09:46:10.504Z,1008.74
2022-10-26T09:47:10.491Z,1008.73
2022-10-26T09:48:10.482Z,1008.74
2022-10-26T09:49:10.468Z,1008.71
2022-10-26T09:50:10.481Z,1008.69
2022-10-26T09:51:10.444Z,1008.71
2022-10-26T09:53:10.423Z,1008.72
2022-10-26T09:54:10.441Z,1008.76
2022-10-26T09:55:10.423Z,1008.79
2022-10-26T09:56:10.415Z,1008.77
2022-10-26T09:57:10.384Z,1008.76
2022-10-26T09:58:10.379Z,1008.78
2022-10-26T09:59:10.384Z,1008.80
2022-10-26T10:00:10.353Z,1008.86
2022-10-26T10:01:10.395Z,1008.84
2022-10-26T10:02:10.333Z,1008.79
2022-10-26T10:03:10.337Z,1008.81
2022-10-26T10:04:10.308Z,1008.85
2022-10-26T10:05:10.336Z,1008.86
2022-10-26T10:06:10.306Z,1008.89
2022-10-26T10:07:10.347Z,1008.89
2022-10-26T10:08:10.259Z,1008.94
2022-10-26T10:09:10.248Z,1008.93
2022-10-26T10:10:10.236Z,1008.97
2022-10-26T10:11:10.249Z,1008.92
2022-10-26T10:12:10.218Z,1008.92
2022-10-26T10:13:10.208Z,1008.94
2022-10-26T10:14:10.197Z,1009.00
2022-10-26T10:15:10.180Z,1008.97
2022-10-26T10:16:10.180Z,1008.95
2022-10-26T10:17:10.233Z,1008.97
2022-10-26T10:18:10.151Z,1009.00
2022-10-26T10:19:10.142Z,1009.01
2022-10-26T10:20:10.130Z,1008.99
2022-10-26T10:21:10.122Z,1009.03
2022-10-26T10:22:10.110Z,1009.09
2022-10-26T10:23:10.121Z,1009.08
2022-10-26T10:24:10.117Z,1009.11
2022-10-26T10:25:10.074Z,1009.09
2022-10-26T10:26:10.065Z,1009.11
2022-10-26T10:27:10.052Z,1009.13
2022-10-26T10:28:10.109Z,1009.15
2022-10-26T10:29:10.052Z,1009.13
2022-10-26T10:30:10.022Z,1009.18
2022-10-26T10:31:10.033Z,1009.11
2022-10-26T10:32:09.995Z,1009.14
2022-10-26T10:33:10.015Z,1009.14
2022-10-26T10:34:10.006Z,1009.16
2022-10-26T10:35:09.966Z,1009.12
2022-10-26T10:36:09.963Z,1009.10
2022-10-26T10:37:10.027Z,1009.14
2022-10-26T10:38:09.934Z,1009.20
2022-10-26T10:39:09.937Z,1009.20
2022-10-26T10:40:09.916Z,1009.28
2022-10-26T10:41:09.897Z,1009.24
2022-10-26T10:42:09.896Z,1009.21
2022-10-26T10:43:09.877Z,1009.21
2022-10-26T10:44:09.896Z,1009.26
2022-10-26T10:45:09.858Z,1009.20
2022-10-26T10:46:09.850Z,1009.26
2022-10-26T10:47:09.838Z,1009.21
2022-10-26T10:48:09.819Z,1009.27
2022-10-26T10:49:09.840Z,1009.24
2022-10-26T10:50:09.807Z,1009.25
2022-10-26T10:51:09.788Z,1009.23
2022-10-26T10:52:09.781Z,1009.26
2022-10-26T10:53:09.792Z,1009.25
2022-10-26T10:54:09.782Z,1009.22
2022-10-26T10:55:09.770Z,1009.24
2022-10-26T10:56:11.574Z,1009.28
2022-10-26T10:57:09.728Z,1009.27
2022-10-26T10:58:09.720Z,1009.27
2022-10-26T10:59:09.703Z,1009.22
2022-10-26T11:00:09.722Z,1009.21
2022-10-26T11:01:09.708Z,1009.20
2022-10-26T11:02:09.768Z,1009.22
2022-10-26T11:03:09.686Z,1009.26
2022-10-26T11:04:09.674Z,1009.20
2022-10-26T11:05:09.663Z,1009.22
2022-10-26T11:06:09.652Z,1009.16
2022-10-26T11:07:09.612Z,1009.18
2022-10-26T11:08:09.604Z,1009.22
2022-10-26T11:09:09.603Z,1009.22
2022-10-26T11:10:09.675Z,1009.21
2022-10-26T11:11:09.605Z,1009.27
2022-10-26T11:12:09.565Z,1009.22
2022-10-26T11:13:09.546Z,1009.15
2022-10-26T11:14:09.549Z,1009.16
2022-10-26T11:15:09.528Z,1009.19
2022-10-26T11:16:09.523Z,1009.18
2022-10-26T11:17:09.525Z,1009.17
2022-10-26T11:18:09.528Z,1009.22
2022-10-26T11:19:09.485Z,1009.22
2022-10-26T11:20:12.495Z,1009.20
2022-10-26T11:21:10.470Z,1009.22
2022-10-26T11:22:09.457Z,1009.17
2022-10-26T11:23:09.445Z,1009.17
2022-10-26T11:24:09.428Z,1009.13
2022-10-26T11:25:09.448Z,1009.09
2022-10-26T11:26:09.417Z,1009.11
2022-10-26T11:27:09.418Z,1009.08
2022-10-26T11:28:09.390Z,1009.11
2022-10-26T11:29:09.414Z,1009.14
2022-10-26T11:30:09.370Z,1009.13
2022-10-26T11:31:09.359Z,1009.09
2022-10-26T11:32:09.370Z,1009.04
2022-10-26T11:33:09.331Z,1009.09
2022-10-26T11:34:09.334Z,1009.00
2022-10-26T11:35:09.312Z,1008.98
2022-10-26T11:36:09.308Z,1009.01
2022-10-26T11:37:09.313Z,1009.05
2022-10-26T11:38:09.277Z,1009.05
2022-10-26T11:39:09.274Z,1008.99
2022-10-26T11:40:09.253Z,1009.01
2022-10-26T11:41:09.245Z,1009.05
2022-10-26T11:42:09.236Z,1009.05
2022-10-26T11:43:09.259Z,1009.01
2022-10-26T11:44:09.205Z,1009.03
2022-10-26T11:45:09.196Z,1009.08
2022-10-26T11:46:09.188Z,1009.08
2022-10-26T11:47:09.175Z,1009.15
2022-10-26T11:48:09.165Z,1009.07
2022-10-26T11:49:09.176Z,1008.98
2022-10-26T11:50:11.194Z,1009.02
2022-10-26T11:51:10.128Z,1008.99
2022-10-26T11:52:09.122Z,1009.01
2022-10-26T11:53:09.136Z,1008.95
2022-10-26T11:54:09.159Z,1008.98
2022-10-26T11:55:09.090Z,1008.98
2022-10-26T11:56:09.078Z,1009.03
2022-10-26T11:57:09.071Z,1009.00
2022-10-26T11:58:09.079Z,1009.05
2022-10-26T11:59:09.051Z,1008.99
2022-10-26T12:00:09.038Z,1009.00
2022-10-26T12:01:09.069Z,1009.03
2022-10-26T12:02:09.021Z,1008.99
2022-10-26T12:03:09.031Z,1009.02
2022-10-26T12:04:08.991Z,1008.98
2022-10-26T12:05:08.989Z,1009.04
2022-10-26T12:06:08.988Z,1009.05
2022-10-26T12:07:08.991Z,1009.01
2022-10-26T12:08:08.953Z,1009.03
2022-10-26T12:09:08.943Z,1009.08